Time;durP1;ratioP1;P1;durP2;ratioP2;P2;SDS_P1;SDS_P2;PMS_P1;PMS_P2;Temp;Humidity;BMP_temperature;BMP_pressure;BME280_temperature;BME280_humidity;BME280_pressure;Samples;Min_cycle;Max_cycle;Signal;HPM_P1;HPM_P2
2023/05/16 00:00:16;;;;;;;2.80;2.00;;;;;;;18.94;61.82;97395.47;2086466;28;20501;-48
2023/05/16 00:01:18;;;;;;;3.65;2.47;;;;;;;18.97;61.39;97397.66;2085736;28;20052;-49
2023/05/16 00:02:19;;;;;;;4.05;2.35;;;;;;;18.98;61.63;97390.44;2084308;28;20132;-49
2023/05/16 00:03:20;;;;;;;;;;;;;;;18.90;61.72;97386.22;2087581;28;20142;-49
2023/05/16 00:04:21;;;;;;;5.05;2.30;;;;;;;18.94;61.93;97384.72;2085402;28;19982;-50
2023/05/16 00:05:23;;;;;;;3.00;1.60;;;;;;;18.97;61.53;97378.03;2083767;28;20060;-48
2023/05/16 00:06:25;;;;;;;3.60;2.38;;;;;;;18.99;61.43;97373.25;2086173;28;20059;-48
2023/05/16 00:07:26;;;;;;;;;;;;;;;18.91;61.75;97374.41;2085866;28;20410;-48
2023/05/16 00:08:27;;;;;;;3.20;2.03;;;;;;;18.93;61.82;97372.31;2087504;28;19924;-48
2023/05/16 00:09:28;;;;;;;;;;;;;;;18.88;61.83;97364.13;2085681;28;20453;-48
2023/05/16 00:10:29;;;;;;;4.97;2.17;;;;;;;18.93;62.02;97372.31;2086630;28;19924;-49
2023/05/16 00:11:30;;;;;;;;;;;;;;;18.87;61.87;97365.19;2088038;28;20056;-47
2023/05/16 00:12:31;;;;;;;3.10;1.80;;;;;;;18.91;61.90;97360.97;2088059;28;22124;-48
2023/05/16 00:13:33;;;;;;;2.80;2.20;;;;;;;18.97;61.47;97357.38;2087673;28;20536;-48
2023/05/16 00:14:35;;;;;;;3.13;2.05;;;;;;;18.97;61.67;97362.75;2089576;28;20053;-53
2023/05/16 00:15:38;;;;;;;3.05;1.48;;;;;;;19.00;61.58;97356.09;2085876;28;20824;-45
2023/05/16 00:16:40;;;;;;;2.95;1.60;;;;;;;19.01;61.42;97359.56;2085555;28;20053;-50
2023/05/16 00:17:45;;;;;;;3.17;1.95;;;;;;;19.03;61.58;97352.06;2085662;28;20057;-47
2023/05/16 00:18:46;;;;;;;3.15;2.70;;;;;;;19.03;61.40;97354.75;2084343;28;20048;-49
2023/05/16 00:19:48;;;;;;;;;;;;;;;18.93;61.68;97350.81;2087415;28;20048;-48
2023/05/16 00:20:48;;;;;;;;;;;;;;;18.86;61.89;97354.69;2088477;28;19951;-46
2023/05/16 00:21:50;;;;;;;2.10;1.65;;;;;;;18.90;61.72;97348.59;2086923;28;19946;-50
2023/05/16 00:22:51;;;;;;;2.38;1.88;;;;;;;18.95;61.92;97353.28;2088833;28;20040;-49
2023/05/16 00:23:52;;;;;;;;;;;;;;;18.89;61.79;97352.34;2087517;28;20040;-45
2023/05/16 00:24:53;;;;;;;3.05;1.48;;;;;;;18.92;61.79;97346.50;2086724;28;19935;-47
2023/05/16 00:25:54;;;;;;;;;;;;;;;18.87;61.77;97345.59;2087345;28;20112;-47
2023/05/16 00:26:55;;;;;;;;;;;;;;;18.83;61.88;97339.84;2086725;28;19977;-45
2023/05/16 00:27:57;;;;;;;3.80;1.33;;;;;;;18.89;61.62;97341.63;2085874;28;20823;-47
2023/05/16 00:28:57;;;;;;;3.38;2.03;;;;;;;18.95;61.73;97339.84;2087739;28;20105;-49
2023/05/16 00:29:59;;;;;;;;;;;;;;;18.88;61.96;97334.59;2085047;28;20048;-46
2023/05/16 00:31:01;;;;;;;3.90;1.65;;;;;;;18.91;61.82;97339.47;2087672;28;19936;-50
2023/05/16 00:32:03;;;;;;;1.88;1.50;;;;;;;18.94;61.29;97330.97;2088637;28;20526;-46
2023/05/16 00:33:04;;;;;;;4.80;2.08;;;;;;;18.97;61.78;97325.13;2089651;28;20077;-50
2023/05/16 00:34:05;;;;;;;4.60;2.03;;;;;;;18.98;61.21;97326.75;2088362;28;20040;-48
2023/05/16 00:35:09;;;;;;;3.40;2.17;;;;;;;19.01;61.43;97324.66;2085738;28;20563;-46
2023/05/16 00:36:11;;;;;;;3.63;1.95;;;;;;;19.00;61.37;97317.63;2087760;28;20052;-49
2023/05/16 00:37:12;;;;;;;3.35;1.50;;;;;;;18.98;61.38;97312.50;2088354;28;20513;-46
2023/05/16 00:38:13;;;;;;;4.82;1.70;;;;;;;19.00;61.29;97306.88;2087854;28;20076;-50
2023/05/16 00:39:14;;;;;;;1.67;1.23;;;;;;;19.02;61.28;97304.78;2088205;28;20049;-45
2023/05/16 00:40:16;;;;;;;;;;;;;;;18.91;61.61;97303.75;2088164;28;20048;-48
2023/05/16 00:41:16;;;;;;;;;;;;;;;18.84;61.95;97297.72;2089464;28;20418;-51
2023/05/16 00:42:19;;;;;;;2.13;1.33;;;;;;;18.89;61.78;97301.31;2088317;28;19927;-49
2023/05/16 00:43:20;;;;;;;1.25;1.10;;;;;;;18.92;61.66;97295.47;2088150;28;20056;-47
2023/05/16 00:44:21;;;;;;;;;;;;;;;18.87;61.65;97298.03;2088621;28;20053;-51
2023/05/16 00:45:22;;;;;;;2.20;2.00;;;;;;;18.91;61.82;97296.50;2086668;28;19932;-46
2023/05/16 00:46:25;;;;;;;;;;;;;;;18.86;61.94;97291.03;2085963;28;20084;-47
2023/05/16 00:47:26;;;;;;;2.85;1.48;;;;;;;18.90;61.84;97292.19;2087722;28;20007;-48
2023/05/16 00:48:27;;;;;;;;;;;;;;;18.84;61.83;97295.84;2089443;28;20102;-47
2023/05/16 00:49:28;;;;;;;4.43;1.92;;;;;;;18.91;61.56;97296.50;2086103;28;19966;-46
2023/05/16 00:50:30;;;;;;;;;;;;;;;18.84;61.94;97279.72;2087916;28;20603;-46
2023/05/16 00:51:31;;;;;;;1.88;1.55;;;;;;;18.90;61.63;97286.81;2086441;28;20024;-48
2023/05/16 00:52:32;;;;;;;;;;;;;;;18.83;61.81;97288.81;2091706;28;20067;-45
2023/05/16 00:53:33;;;;;;;;;;;;;;;18.79;61.89;97284.97;2084920;28;19927;-47
2023/05/16 00:54:35;;;;;;;1.73;1.63;;;;;;;18.84;61.66;97287.78;2086201;28;20039;-48
2023/05/16 00:55:37;;;;;;;2.42;1.23;;;;;;;18.91;61.39;97285.75;2086752;28;20429;-45
2023/05/16 00:56:38;;;;;;;3.38;1.65;;;;;;;18.94;61.51;97271.88;2085465;28;20106;-45
2023/05/16 00:57:39;;;;;;;2.05;1.55;;;;;;;18.97;61.14;97282.13;2087525;28;21885;-50
2023/05/16 00:58:40;;;;;;;;;;;;;;;18.88;61.56;97277.34;2087345;28;20110;-49
2023/05/16 00:59:42;;;;;;;2.42;1.42;;;;;;;18.91;61.51;97276.88;2087507;28;20005;-46
2023/05/16 01:00:46;;;;;;;1.88;1.33;;;;;;;18.94;61.43;97277.25;2086871;28;20138;-45
2023/05/16 01:01:50;;;;;;;2.78;1.33;;;;;;;18.95;61.01;97273.50;2085873;28;20056;-48
2023/05/16 01:02:52;;;;;;;2.22;1.38;;;;;;;18.96;61.26;97274.28;2084878;28;20049;-50
2023/05/16 01:03:53;;;;;;;3.50;1.50;;;;;;;18.97;61.32;97278.59;2085367;28;20045;-47
2023/05/16 01:04:55;;;;;;;1.92;1.50;;;;;;;18.95;61.44;97270.81;2083421;28;20163;-49
2023/05/16 01:05:57;;;;;;;2.95;1.75;;;;;;;18.96;61.28;97267.03;2087351;28;20796;-46
2023/05/16 01:06:58;;;;;;;3.38;1.95;;;;;;;18.97;61.45;97273.22;2086016;28;20071;-44
2023/05/16 01:07:59;;;;;;;1.38;1.27;;;;;;;18.97;61.13;97265.16;2086376;28;20097;-47
2023/05/16 01:09:00;;;;;;;;;;;;;;;18.88;61.83;97272.78;2089295;28;20040;-46
2023/05/16 01:10:02;;;;;;;2.92;2.08;;;;;;;18.91;61.54;97266.94;2087442;28;19928;-49
2023/05/16 01:11:10;;;;;;;2.40;1.33;;;;;;;18.93;61.38;97258.66;2086266;28;20048;-52
2023/05/16 01:12:17;;;;;;;2.85;1.48;;;;;;;18.95;61.26;97262.75;2085626;28;20045;-49
2023/05/16 01:13:28;;;;;;;2.55;1.50;;;;;;;18.94;61.35;97258.44;2086472;28;20955;-48
2023/05/16 01:14:38;;;;;;;1.40;1.30;;;;;;;18.95;61.41;97261.94;2085834;28;20132;-48
2023/05/16 01:15:45;;;;;;;3.00;1.25;;;;;;;18.95;61.56;97261.94;2087944;28;20048;-50
2023/05/16 01:16:57;;;;;;;1.85;1.27;;;;;;;18.96;61.49;97261.69;2088228;28;20056;-45
2023/05/16 01:18:06;;;;;;;2.47;1.80;;;;;;;18.96;61.23;97263.56;2086040;28;20053;-48
2023/05/16 01:19:15;;;;;;;1.85;1.20;;;;;;;18.96;61.33;97247.44;2086776;28;20924;-50
2023/05/16 01:20:33;;;;;;;2.40;1.65;;;;;;;18.95;61.49;97248.50;2085193;28;20052;-47
2023/05/16 01:21:44;;;;;;;2.40;1.63;;;;;;;18.93;61.52;97250.59;2085120;28;20113;-47
2023/05/16 01:23:07;;;;;;;3.05;1.27;;;;;;;18.93;61.28;97248.72;2087858;28;20227;-48
2023/05/16 01:24:13;;;;;;;3.05;1.35;;;;;;;18.92;61.50;97238.22;2086907;28;20591;-50
2023/05/16 01:25:27;;;;;;;1.75;1.08;;;;;;;18.94;61.41;97241.47;2088175;28;20438;-49
2023/05/16 01:26:31;;;;;;;2.65;1.45;;;;;;;18.95;61.24;97235.06;2085902;28;20059;-48
2023/05/16 01:27:34;;;;;;;1.60;1.13;;;;;;;18.93;61.22;97237.97;2086529;28;20057;-52
2023/05/16 01:28:36;;;;;;;2.65;1.88;;;;;;;18.94;61.13;97231.56;2087086;28;20053;-47
2023/05/16 01:29:38;;;;;;;1.80;1.20;;;;;;;18.93;61.40;97231.78;2086026;28;20061;-48
2023/05/16 01:30:40;;;;;;;2.65;1.55;;;;;;;18.97;61.13;97235.63;2084192;28;20067;-51
2023/05/16 01:31:41;;;;;;;1.35;1.10;;;;;;;18.96;61.34;97234.81;2084681;28;20178;-46
2023/05/16 01:32:43;;;;;;;;;;;;;;;18.89;61.42;97236.03;2085528;28;20613;-49
2023/05/16 01:33:44;;;;;;;1.85;1.52;;;;;;;18.91;61.54;97226.66;2088773;28;20520;-48
2023/05/16 01:34:45;;;;;;;2.13;1.30;;;;;;;18.94;61.26;97228.03;2090045;28;20056;-48
2023/05/16 01:35:54;;;;;;;2.08;1.20;;;;;;;18.95;61.50;97225.13;2088514;28;20081;-50
2023/05/16 01:37:05;;;;;;;1.67;1.10;;;;;;;18.94;61.15;97223.50;2085287;28;20099;-46
2023/05/16 01:38:11;;;;;;;1.13;0.93;;;;;;;18.96;61.23;97232.13;2082570;28;20045;-51
2023/05/16 01:39:20;;;;;;;2.80;1.13;;;;;;;18.96;61.15;97226.75;2083452;28;20052;-51
2023/05/16 01:40:28;;;;;;;1.73;1.20;;;;;;;18.95;61.26;97232.38;2083680;28;20073;-49
2023/05/16 01:41:39;;;;;;;2.00;1.38;;;;;;;18.95;61.36;97229.69;2083899;28;20052;-49
2023/05/16 01:42:44;;;;;;;2.30;1.10;;;;;;;18.95;61.26;97225.13;2087789;28;20056;-48
2023/05/16 01:43:49;;;;;;;0.98;0.80;;;;;;;18.95;61.16;97224.31;2084348;28;20048;-49
2023/05/16 01:44:55;;;;;;;1.95;1.33;;;;;;;18.95;61.05;97218.94;2085840;28;20102;-49
2023/05/16 01:46:03;;;;;;;2.22;1.30;;;;;;;18.97;61.11;97216.81;2085728;28;20045;-51
2023/05/16 01:47:15;;;;;;;2.65;1.48;;;;;;;18.94;61.52;97211.91;2086194;28;20052;-52
2023/05/16 01:48:21;;;;;;;1.65;1.20;;;;;;;18.96;61.15;97213.31;2084036;28;20098;-45
2023/05/16 01:49:30;;;;;;;2.28;1.10;;;;;;;18.96;61.30;97218.69;2084680;28;20464;-45
2023/05/16 01:50:35;;;;;;;1.40;1.10;;;;;;;18.95;61.06;97211.69;2084837;28;20052;-48
2023/05/16 01:51:41;;;;;;;2.20;0.90;;;;;;;18.95;61.07;97211.69;2086072;28;20149;-47
2023/05/16 01:52:47;;;;;;;2.42;1.60;;;;;;;18.97;61.15;97209.59;2086172;28;20055;-46
2023/05/16 01:53:51;;;;;;;2.80;1.42;;;;;;;18.97;61.39;97206.91;2086017;28;20135;-45
2023/05/16 01:54:52;;;;;;;1.73;1.30;;;;;;;18.96;61.33;97207.13;2084927;28;20037;-48
2023/05/16 01:55:57;;;;;;;2.55;1.25;;;;;;;18.96;61.16;97204.44;2086014;28;20051;-45
2023/05/16 01:57:02;;;;;;;1.38;1.02;;;;;;;18.96;61.17;97207.94;2087079;28;20052;-44
2023/05/16 01:58:05;;;;;;;2.35;1.30;;;;;;;18.96;61.19;97210.63;2090209;28;20107;-50
2023/05/16 01:59:07;;;;;;;2.83;1.38;;;;;;;18.97;61.00;97206.91;2084496;28;20082;-45
2023/05/16 02:00:10;;;;;;;2.17;1.05;;;;;;;18.96;61.17;97199.88;2086166;28;20199;-49
2023/05/16 02:01:12;;;;;;;1.42;1.13;;;;;;;18.96;61.21;97202.56;2085313;28;20069;-46
2023/05/16 02:02:14;;;;;;;2.40;1.48;;;;;;;18.95;61.24;97200.94;2085025;28;20056;-49
2023/05/16 02:03:14;;;;;;;2.05;0.90;;;;;;;18.98;61.14;97207.72;2088642;28;20045;-48
2023/05/16 02:04:16;;;;;;;;;;;;;;;18.87;61.69;97192.47;2084640;28;20123;-48
2023/05/16 02:05:17;;;;;;;1.58;1.10;;;;;;;18.88;61.46;97196.75;2087585;28;19928;-50
2023/05/16 02:06:18;;;;;;;;;;;;;;;18.81;61.64;97191.53;2088158;28;20057;-48
2023/05/16 02:07:19;;;;;;;2.38;1.30;;;;;;;18.85;61.23;97195.38;2087042;28;19925;-49
2023/05/16 02:08:21;;;;;;;;;;;;;;;18.78;61.86;97197.41;2087352;28;20596;-47
2023/05/16 02:09:21;;;;;;;;;;;;;;;18.74;61.84;97196.22;2088262;28;20477;-47
2023/05/16 02:10:23;;;;;;;2.83;1.43;;;;;;;18.81;61.85;97188.06;2085694;28;19936;-49
2023/05/16 02:11:24;;;;;;;1.00;0.95;;;;;;;18.86;61.61;97188.13;2086038;28;20121;-47
2023/05/16 02:12:27;;;;;;;;;;;;;;;18.80;61.54;97187.22;2085936;28;20049;-45
2023/05/16 02:13:28;;;;;;;1.20;1.00;;;;;;;18.85;61.68;97186.50;2087739;28;20370;-48
2023/05/16 02:14:29;;;;;;;;;;;;;;;18.80;61.64;97191.78;2089410;28;20084;-48
2023/05/16 02:15:30;;;;;;;0.88;0.88;;;;;;;18.83;61.57;97178.66;2088660;28;19949;-47
2023/05/16 02:16:31;;;;;;;;;;;;;;;18.76;61.65;97180.69;2086881;28;20086;-48
2023/05/16 02:17:32;;;;;;;1.70;1.00;;;;;;;18.83;61.57;97173.28;2086838;28;19960;-48
2023/05/16 02:18:33;;;;;;;;;;;;;;;18.75;61.36;97171.84;2087157;28;20059;-49
2023/05/16 02:19:34;;;;;;;1.30;1.00;;;;;;;18.82;61.52;97177.06;2085161;28;19925;-46
2023/05/16 02:20:36;;;;;;;;;;;;;;;18.77;61.71;97178.81;2085200;28;20508;-49
2023/05/16 02:21:37;;;;;;;2.28;1.23;;;;;;;18.82;62.02;97177.06;2086663;28;19924;-48
2023/05/16 02:22:38;;;;;;;1.35;1.10;;;;;;;18.89;61.55;97179.59;2088326;28;20885;-48
2023/05/16 02:23:40;;;;;;;;;;;;;;;18.78;61.73;97181.28;2089868;28;20053;-48
2023/05/16 02:24:41;;;;;;;1.95;0.82;;;;;;;18.83;61.69;97186.72;2086007;28;19928;-51
2023/05/16 02:25:42;;;;;;;;;;;;;;;18.75;61.35;97187.94;2087608;28;20045;-45
2023/05/16 02:26:43;;;;;;;1.95;0.93;;;;;;;18.81;61.57;97190.75;2086775;28;19928;-48
2023/05/16 02:27:45;;;;;;;;;;;;;;;18.76;61.97;97199.50;2086943;28;20125;-47
2023/05/16 02:28:48;;;;;;;1.83;0.80;;;;;;;18.82;61.54;97176.25;2085735;28;19928;-45
2023/05/16 02:29:50;;;;;;;0.93;0.90;;;;;;;18.86;61.25;97180.06;2086953;28;20057;-50
2023/05/16 02:30:56;;;;;;;1.10;0.95;;;;;;;18.87;61.21;97177.16;2085226;28;20456;-45
2023/05/16 02:31:57;;;;;;;2.58;0.80;;;;;;;18.92;61.24;97189.88;2084819;28;20132;-47
2023/05/16 02:32:58;;;;;;;1.75;0.98;;;;;;;18.93;61.36;97183.44;2086033;28;20522;-48
2023/05/16 02:34:00;;;;;;;;;;;;;;;18.83;61.28;97184.03;2087088;28;20075;-48
2023/05/16 02:35:00;;;;;;;;;;;;;;;18.76;61.61;97180.69;2087270;28;19931;-48
2023/05/16 02:36:02;;;;;;;1.30;0.97;;;;;;;18.80;61.74;97183.72;2086347;28;19959;-48
2023/05/16 02:37:03;;;;;;;1.50;0.95;;;;;;;18.85;61.79;97181.13;2085323;28;20329;-50
2023/05/16 02:38:05;;;;;;;1.15;1.02;;;;;;;18.87;61.09;97189.78;2086695;28;20049;-47
2023/05/16 02:39:08;;;;;;;2.97;1.10;;;;;;;18.88;61.38;97180.66;2086103;28;20437;-47
2023/05/16 02:40:11;;;;;;;3.05;1.30;;;;;;;18.89;61.30;97179.59;2087199;28;20123;-46
2023/05/16 02:41:12;;;;;;;1.50;0.80;;;;;;;18.91;61.26;97193.59;2086555;28;20093;-49
2023/05/16 02:42:13;;;;;;;;;;;;;;;18.81;61.51;97191.53;2086280;28;20102;-49
2023/05/16 02:43:15;;;;;;;0.95;0.82;;;;;;;18.85;61.35;97184.63;2087846;28;20544;-47
2023/05/16 02:44:17;;;;;;;1.27;0.75;;;;;;;18.88;61.34;97183.34;2086420;28;20048;-47
2023/05/16 02:45:17;;;;;;;0.95;0.85;;;;;;;18.89;61.39;97188.47;2085184;28;20061;-48
2023/05/16 02:46:23;;;;;;;;;;;;;;;18.81;61.62;97190.75;2084765;28;20698;-48
2023/05/16 02:47:24;;;;;;;1.05;0.80;;;;;;;18.84;61.43;97195.63;2085291;28;20719;-47
2023/05/16 02:48:25;;;;;;;;;;;;;;;18.77;61.63;97195.75;2086237;28;20060;-47
2023/05/16 02:49:26;;;;;;;2.65;1.00;;;;;;;18.82;61.42;97187.78;2084385;28;19928;-46
2023/05/16 02:50:27;;;;;;;;;;;;;;;18.77;61.54;97194.94;2087508;28;20053;-46
2023/05/16 02:51:28;;;;;;;1.73;1.20;;;;;;;18.81;61.63;97196.13;2084252;28;19924;-50
2023/05/16 02:52:29;;;;;;;1.13;0.85;;;;;;;18.86;61.33;97194.34;2085735;28;20106;-48
2023/05/16 02:53:30;;;;;;;1.67;1.02;;;;;;;18.89;61.21;97195.72;2083742;28;20052;-47
2023/05/16 02:54:31;;;;;;;;;;;;;;;18.81;61.48;97202.28;2085511;28;20149;-48
2023/05/16 02:55:33;;;;;;;1.95;1.83;;;;;;;18.84;61.32;97190.25;2086556;28;19985;-46
2023/05/16 02:56:34;;;;;;;0.88;0.70;;;;;;;18.84;61.46;97191.06;2085968;28;20052;-47
2023/05/16 02:57:35;;;;;;;0.90;0.65;;;;;;;18.87;61.57;97195.16;2083377;28;20053;-48
2023/05/16 02:58:38;;;;;;;;;;;;;;;18.78;61.37;97193.88;2087230;28;20508;-46
2023/05/16 02:59:38;;;;;;;0.75;0.73;;;;;;;18.83;61.18;97188.59;2084869;28;20019;-45
2023/05/16 03:00:40;;;;;;;;;;;;;;;18.75;61.75;97181.78;2087527;28;20719;-47
2023/05/16 03:01:40;;;;;;;1.65;0.60;;;;;;;18.82;61.52;97190.47;2086722;28;20652;-47
2023/05/16 03:02:42;;;;;;;;;;;;;;;18.75;61.80;97187.13;2085463;28;20052;-48
2023/05/16 03:03:43;;;;;;;;;;;;;;;18.70;61.80;97185.13;2086218;28;20539;-47
2023/05/16 03:04:44;;;;;;;1.30;0.98;;;;;;;18.77;61.92;97178.81;2087621;28;19947;-48
2023/05/16 03:05:46;;;;;;;0.68;0.57;;;;;;;18.83;61.64;97185.91;2086748;28;20052;-46
2023/05/16 03:06:47;;;;;;;2.20;0.90;;;;;;;18.85;61.57;97175.75;2084296;28;20110;-46
2023/05/16 03:07:48;;;;;;;1.13;0.77;;;;;;;18.87;61.28;97185.22;2087502;28;20113;-48
2023/05/16 03:08:50;;;;;;;;;;;;;;;18.79;61.47;97177.53;2086238;28;20544;-47
2023/05/16 03:09:50;;;;;;;1.27;0.70;;;;;;;18.82;61.61;97171.69;2085991;28;19986;-47
2023/05/16 03:10:52;;;;;;;;;;;;;;;18.73;61.62;97179.28;2085924;28;20540;-47
2023/05/16 03:11:52;;;;;;;0.95;0.70;;;;;;;18.78;61.72;97183.13;2086444;28;19990;-47
2023/05/16 03:12:54;;;;;;;;;;;;;;;18.73;61.85;97183.84;2088019;28;20052;-47
2023/05/16 03:13:58;;;;;;;1.30;0.95;;;;;;;18.78;61.86;97177.75;2085157;28;19950;-45
2023/05/16 03:15:00;;;;;;;1.92;1.05;;;;;;;18.82;61.66;97174.38;2086332;28;20675;-47
2023/05/16 03:16:01;;;;;;;1.08;0.80;;;;;;;18.84;61.34;97185.69;2086570;28;20056;-47
2023/05/16 03:17:03;;;;;;;0.77;0.70;;;;;;;18.86;61.51;97177.38;2084457;28;20053;-47
2023/05/16 03:18:04;;;;;;;1.02;0.90;;;;;;;18.89;61.06;97190.34;2083896;28;20413;-47
2023/05/16 03:19:06;;;;;;;;;;;;;;;18.78;61.21;97181.28;2085409;28;20049;-47
2023/05/16 03:20:08;;;;;;;1.13;0.85;;;;;;;18.81;61.33;97180.81;2086532;28;19924;-46
2023/05/16 03:21:09;;;;;;;1.13;0.90;;;;;;;18.83;61.70;97177.84;2085563;28;20175;-49
2023/05/16 03:22:10;;;;;;;0.90;0.52;;;;;;;18.87;61.35;97184.41;2085998;28;20049;-46
2023/05/16 03:23:12;;;;;;;;;;;;;;;18.77;61.67;97176.13;2087423;28;20048;-48
2023/05/16 03:24:12;;;;;;;1.25;1.08;;;;;;;18.78;61.33;97186.66;2088016;28;19938;-47
2023/05/16 03:25:14;;;;;;;0.73;0.50;;;;;;;18.83;61.77;97178.66;2085805;28;20045;-47
2023/05/16 03:26:15;;;;;;;0.88;0.75;;;;;;;18.84;61.50;97174.94;2085632;28;20048;-47
2023/05/16 03:27:16;;;;;;;;;;;;;;;18.76;61.63;97183.38;2085436;28;20071;-49
2023/05/16 03:28:17;;;;;;;0.93;0.60;;;;;;;18.79;61.55;97180.22;2085866;28;20480;-51
2023/05/16 03:29:20;;;;;;;0.85;0.63;;;;;;;18.85;61.36;97181.94;2084074;28;20049;-46
2023/05/16 03:30:21;;;;;;;2.58;1.35;;;;;;;18.83;61.17;97178.66;2087346;28;20118;-46
2023/05/16 03:31:23;;;;;;;2.30;1.00;;;;;;;18.87;61.32;97173.66;2083380;28;20068;-47
2023/05/16 03:32:24;;;;;;;1.23;1.17;;;;;;;18.88;61.23;97175.28;2086651;28;20048;-46
2023/05/16 03:33:25;;;;;;;;;;;;;;;18.80;61.55;97176.47;2086915;28;20106;-47
2023/05/16 03:34:26;;;;;;;1.35;0.60;;;;;;;18.81;61.64;97183.50;2088730;28;19921;-46
2023/05/16 03:35:27;;;;;;;;;;;;;;;18.73;61.70;97178.47;2084732;28;20061;-47
2023/05/16 03:36:30;;;;;;;1.10;1.00;;;;;;;18.79;61.77;97169.47;2079085;28;19978;-48
2023/05/16 03:37:31;;;;;;;1.60;1.20;;;;;;;18.81;61.30;97164.69;2082732;28;20059;-46
2023/05/16 03:38:32;;;;;;;;;;;;;;;18.74;61.79;97169.38;2085877;28;20524;-47
2023/05/16 03:39:33;;;;;;;1.85;1.08;;;;;;;18.78;61.41;97159.81;2087930;28;19974;-47
2023/05/16 03:40:34;;;;;;;;;;;;;;;18.74;61.79;97155.94;2084534;28;20127;-46
2023/05/16 03:41:35;;;;;;;0.70;0.47;;;;;;;18.78;61.62;97146.38;2085304;28;19925;-48
2023/05/16 03:42:36;;;;;;;;;;;;;;;18.71;61.83;97154.53;2087320;28;20188;-47
2023/05/16 03:43:37;;;;;;;1.27;0.73;;;;;;;18.76;61.49;97161.91;2085069;28;19966;-46
2023/05/16 03:44:40;;;;;;;2.60;1.15;;;;;;;18.81;61.81;97153.94;2086234;28;20064;-47
2023/05/16 03:45:42;;;;;;;0.77;0.50;;;;;;;18.84;61.58;97158.03;2087430;28;20044;-47
2023/05/16 03:46:43;;;;;;;0.70;0.65;;;;;;;18.85;61.23;97152.38;2087858;28;20056;-47
2023/05/16 03:47:44;;;;;;;1.40;0.90;;;;;;;18.86;61.43;97159.41;2086660;28;20049;-47
2023/05/16 03:48:46;;;;;;;;;;;;;;;18.79;61.44;97158.72;2084868;28;20128;-47
2023/05/16 03:49:46;;;;;;;;;;;;;;;18.70;61.82;97152.91;2084176;28;19982;-48
2023/05/16 03:50:48;;;;;;;0.90;0.73;;;;;;;18.74;61.72;97150.56;2085444;28;19932;-46
2023/05/16 03:51:48;;;;;;;1.65;1.15;;;;;;;18.78;61.44;97154.44;2085909;28;20056;-46
2023/05/16 03:52:52;;;;;;;;;;;;;;;18.71;61.62;97159.91;2085933;28;20053;-47
2023/05/16 03:53:53;;;;;;;0.73;0.73;;;;;;;18.76;61.62;97156.53;2085236;28;19924;-46
2023/05/16 03:54:54;;;;;;;;;;;;;;;18.70;62.14;97158.28;2087779;28;20371;-48
2023/05/16 03:55:55;;;;;;;1.85;0.57;;;;;;;18.72;61.72;97156.16;2084145;28;19921;-46
2023/05/16 03:56:57;;;;;;;0.80;0.43;;;;;;;18.77;61.54;97155.47;2085713;28;20048;-46
2023/05/16 03:57:59;;;;;;;2.15;0.82;;;;;;;18.80;61.46;97146.91;2086617;28;21670;-47
2023/05/16 03:58:59;;;;;;;1.20;0.70;;;;;;;18.84;61.46;97145.41;2086959;28;20044;-49
2023/05/16 04:00:02;;;;;;;;;;;;;;;18.75;61.73;97146.84;2090341;28;20047;-46
2023/05/16 04:01:03;;;;;;;1.67;0.75;;;;;;;18.77;61.62;97147.41;2086816;28;19978;-46
2023/05/16 04:02:05;;;;;;;;;;;;;;;18.69;61.78;97145.91;2086110;28;20136;-49
2023/05/16 04:03:05;;;;;;;0.82;0.68;;;;;;;18.73;61.63;97151.59;2082903;28;19997;-49
2023/05/16 04:04:07;;;;;;;;;;;;;;;18.67;61.70;97141.84;2088725;28;20052;-46
2023/05/16 04:05:09;;;;;;;2.35;0.80;;;;;;;18.72;61.58;97140.06;2085568;28;20621;-47
2023/05/16 04:06:10;;;;;;;1.15;0.70;;;;;;;18.75;61.27;97150.34;2085226;28;20456;-48
2023/05/16 04:07:11;;;;;;;1.55;1.20;;;;;;;18.79;61.30;97148.00;2085488;28;20041;-47
2023/05/16 04:08:12;;;;;;;;;;;;;;;18.72;61.99;97149.97;2086305;28;20107;-46
2023/05/16 04:09:13;;;;;;;0.98;0.57;;;;;;;18.74;61.47;97164.81;2086831;28;19924;-48
2023/05/16 04:10:14;;;;;;;;;;;;;;;18.70;61.53;97149.41;2083528;28;20053;-46
2023/05/16 04:11:15;;;;;;;3.38;0.82;;;;;;;18.73;61.72;97144.38;2082827;28;20043;-46
2023/05/16 04:12:16;;;;;;;;;;;;;;;18.70;61.67;97152.91;2087200;28;20048;-46
2023/05/16 04:13:17;;;;;;;0.93;0.70;;;;;;;18.73;61.59;97151.59;2084880;28;19920;-47
2023/05/16 04:14:19;;;;;;;0.85;0.60;;;;;;;18.76;61.73;97151.16;2082928;28;20176;-46
2023/05/16 04:15:21;;;;;;;1.70;0.90;;;;;;;18.82;61.59;97136.75;2084458;28;20413;-46
2023/05/16 04:16:23;;;;;;;0.95;0.70;;;;;;;18.81;61.29;97140.50;2086890;28;20077;-47
2023/05/16 04:17:23;;;;;;;0.65;0.40;;;;;;;18.83;61.55;97138.38;2084346;28;20052;-48
2023/05/16 04:18:25;;;;;;;;;;;;;;;18.70;61.44;97126.03;2087357;28;20102;-48
2023/05/16 04:19:26;;;;;;;1.02;0.80;;;;;;;18.76;61.83;97137.72;2085353;28;19925;-47
2023/05/16 04:20:27;;;;;;;;;;;;;;;18.71;61.79;97138.41;2085156;28;20264;-46
2023/05/16 04:21:29;;;;;;;2.65;0.70;;;;;;;18.74;61.45;97131.78;2084754;28;19944;-49
2023/05/16 04:22:30;;;;;;;1.60;0.68;;;;;;;18.78;61.25;97138.31;2085738;28;20041;-48
2023/05/16 04:23:31;;;;;;;;;;;;;;;18.70;61.95;97123.34;2084014;28;20056;-47
2023/05/16 04:24:32;;;;;;;0.73;0.47;;;;;;;18.74;61.64;97126.41;2086065;28;20382;-46
2023/05/16 04:25:34;;;;;;;0.98;0.70;;;;;;;18.79;61.48;97120.31;2085780;28;20045;-46
2023/05/16 04:26:35;;;;;;;3.10;0.88;;;;;;;18.81;61.47;97124.41;2086325;28;20074;-48
2023/05/16 04:27:37;;;;;;;;;;;;;;;18.70;61.76;97123.34;2085040;28;20079;-47
2023/05/16 04:28:38;;;;;;;1.10;0.82;;;;;;;18.76;61.67;97118.94;2084750;28;19920;-46
2023/05/16 04:29:39;;;;;;;;;;;;;;;18.70;61.49;97130.59;2085526;28;20080;-46
2023/05/16 04:30:42;;;;;;;0.70;0.65;;;;;;;18.75;61.62;97122.69;2086267;28;19950;-46
2023/05/16 04:31:43;;;;;;;1.05;0.38;;;;;;;18.78;61.35;97118.66;2085047;28;20060;-47
2023/05/16 04:32:44;;;;;;;;;;;;;;;18.72;61.81;97128.47;2084703;28;20387;-47
2023/05/16 04:33:45;;;;;;;0.85;0.60;;;;;;;18.75;61.71;97109.25;2086710;28;20343;-48
2023/05/16 04:34:48;;;;;;;1.25;0.82;;;;;;;18.77;61.61;97112.50;2087669;28;20078;-45
2023/05/16 04:35:49;;;;;;;0.70;0.70;;;;;;;18.80;61.65;97105.81;2086394;28;20048;-47
2023/05/16 04:36:50;;;;;;;;;;;;;;;18.72;61.45;97104.31;2086766;28;20123;-47
2023/05/16 04:37:51;;;;;;;0.70;0.68;;;;;;;18.73;61.73;97103.25;2086584;28;19978;-47
2023/05/16 04:38:52;;;;;;;0.63;0.63;;;;;;;18.76;61.58;97092.06;2084669;28;20462;-47
2023/05/16 04:39:53;;;;;;;0.45;0.30;;;;;;;18.81;61.28;97099.41;2084532;28;20059;-46
2023/05/16 04:40:55;;;;;;;;;;;;;;;18.71;61.60;97094.63;2084306;28;20580;-47
2023/05/16 04:41:58;;;;;;;;;;;;;;;18.65;62.03;97092.91;2084184;28;20011;-47
2023/05/16 04:42:59;;;;;;;1.60;0.73;;;;;;;18.70;61.62;97087.63;2087133;28;19932;-47
2023/05/16 04:44:02;;;;;;;0.63;0.45;;;;;;;18.75;61.51;97098.50;2086358;28;20502;-46
2023/05/16 04:45:09;;;;;;;2.55;0.95;;;;;;;18.80;61.47;97087.81;2087152;28;20059;-50
2023/05/16 04:46:11;;;;;;;1.48;0.88;;;;;;;18.82;61.47;97112.59;2085264;28;20551;-48
2023/05/16 04:47:13;;;;;;;1.10;1.00;;;;;;;18.81;61.45;97110.97;2085710;28;20175;-47
2023/05/16 04:48:14;;;;;;;1.65;0.60;;;;;;;18.81;61.39;97108.28;2085457;28;20753;-48
2023/05/16 04:49:15;;;;;;;;;;;;;;;18.73;61.27;97108.63;2088527;28;20049;-47
2023/05/16 04:50:17;;;;;;;0.70;0.50;;;;;;;18.74;61.57;97099.53;2086262;28;19920;-46
2023/05/16 04:51:18;;;;;;;0.82;0.50;;;;;;;18.77;61.37;97095.56;2087248;28;20149;-46
2023/05/16 04:52:19;;;;;;;0.82;0.70;;;;;;;18.80;61.29;97095.88;2086210;28;20260;-47
2023/05/16 04:53:21;;;;;;;;;;;;;;;18.70;61.52;97106.44;2087594;28;20214;-47
2023/05/16 04:54:21;;;;;;;;;;;;;;;18.62;61.72;97104.94;2085467;28;19920;-46
2023/05/16 04:55:23;;;;;;;0.80;0.80;;;;;;;18.68;61.48;97105.84;2085788;28;19932;-45
2023/05/16 04:56:23;;;;;;;1.75;0.77;;;;;;;18.73;61.65;97097.91;2087494;28;22710;-48
2023/05/16 04:57:25;;;;;;;;;;;;;;;18.69;61.62;97102.09;2088498;28;20098;-46
2023/05/16 04:58:27;;;;;;;0.85;0.50;;;;;;;18.73;61.58;97104.06;2087798;28;19985;-47
2023/05/16 04:59:27;;;;;;;0.82;0.50;;;;;;;18.75;61.36;97103.88;2088823;28;20074;-47
2023/05/16 05:00:29;;;;;;;;;;;;;;;18.66;61.56;97100.72;2086537;28;20462;-48